createdAt,value
2019-05-17T00:02:18.156Z,101166.81
2019-05-17T00:04:53.315Z,101162.78
2019-05-17T00:07:37.005Z,101158.00
2019-05-17T00:10:11.552Z,101161.74
2019-05-17T00:12:46.921Z,101161.90
2019-05-17T00:15:29.010Z,101158.44
2019-05-17T00:18:03.483Z,101155.25
2019-05-17T00:20:37.673Z,101154.10
2019-05-17T00:23:12.028Z,101152.76
2019-05-17T00:26:00.106Z,101146.95
2019-05-17T00:28:33.969Z,101150.91
2019-05-17T00:31:20.405Z,101147.69
2019-05-17T00:33:53.906Z,101149.03
2019-05-17T00:36:27.664Z,101146.19
2019-05-17T00:39:01.989Z,101136.92
2019-05-17T00:41:37.742Z,101139.84
2019-05-17T00:44:21.145Z,101125.43
2019-05-17T00:46:58.642Z,101126.70
2019-05-17T00:49:30.350Z,101126.62
2019-05-17T00:52:07.028Z,101126.83
2019-05-17T00:54:40.959Z,101122.28
2019-05-17T00:57:29.904Z,101117.20
2019-05-17T01:00:13.395Z,101116.02
2019-05-17T01:02:47.057Z,101116.91
2019-05-17T01:05:20.304Z,101116.02
2019-05-17T01:07:53.788Z,101115.11
2019-05-17T01:10:39.054Z,101110.92
2019-05-17T01:13:13.128Z,101111.15
2019-05-17T01:15:47.411Z,101113.26
2019-05-17T01:18:21.639Z,101112.56
2019-05-17T01:21:07.165Z,101098.89
2019-05-17T01:23:39.295Z,101104.95
2019-05-17T01:26:12.509Z,101098.54
2019-05-17T01:28:46.828Z,101101.50
2019-05-17T01:31:37.364Z,101095.91
2019-05-17T01:34:22.552Z,101094.77
2019-05-17T01:37:06.477Z,101093.88
2019-05-17T01:39:40.149Z,101091.66
2019-05-17T01:42:13.652Z,101088.13
2019-05-17T01:44:47.792Z,101091.05
2019-05-17T01:47:30.723Z,101087.00
2019-05-17T01:50:12.936Z,101077.21
2019-05-17T01:52:46.557Z,101077.14
2019-05-17T01:55:20.260Z,101068.63
2019-05-17T01:57:53.564Z,101072.06
2019-05-17T02:00:27.364Z,101071.11
2019-05-17T02:03:00.859Z,101071.98
2019-05-17T02:05:34.138Z,101067.52
2019-05-17T02:08:07.439Z,101065.80
2019-05-17T02:10:41.346Z,101063.98
2019-05-17T02:13:16.450Z,101061.77
2019-05-17T02:15:50.268Z,101065.95
2019-05-17T02:18:26.424Z,101063.20
2019-05-17T02:21:08.949Z,101056.39
2019-05-17T02:23:52.143Z,101054.27
2019-05-17T02:26:26.686Z,101053.47
2019-05-17T02:29:01.431Z,101053.30
2019-05-17T02:31:35.066Z,101049.36
2019-05-17T02:34:09.880Z,101045.33
2019-05-17T02:36:43.348Z,101049.20
2019-05-17T02:39:17.565Z,101049.28
2019-05-17T02:41:53.325Z,101048.48
2019-05-17T02:44:36.133Z,101046.88
2019-05-17T02:47:18.778Z,101048.46
2019-05-17T02:50:07.607Z,101055.77
2019-05-17T02:52:52.803Z,101051.08
2019-05-17T02:55:34.240Z,101053.39
2019-05-17T02:58:06.612Z,101054.36
2019-05-17T03:00:43.977Z,101059.23
2019-05-17T03:03:24.572Z,101054.36
2019-05-17T03:05:57.929Z,101053.63
2019-05-17T03:08:34.170Z,101053.25
2019-05-17T03:11:06.426Z,101049.82
2019-05-17T03:13:39.608Z,101051.16
2019-05-17T03:16:14.636Z,101051.74
2019-05-17T03:18:48.531Z,101051.09
2019-05-17T03:21:22.902Z,101051.74
2019-05-17T03:23:55.458Z,101052.05
2019-05-17T03:26:38.232Z,101049.73
2019-05-17T03:29:22.782Z,101053.63
2019-05-17T03:32:00.004Z,101044.14
2019-05-17T03:34:36.976Z,101052.52
2019-05-17T03:37:17.392Z,101058.31
2019-05-17T03:40:04.557Z,101056.97
2019-05-17T03:42:44.343Z,101054.81
2019-05-17T03:45:17.846Z,101057.42
2019-05-17T03:47:53.181Z,101046.83
2019-05-17T03:50:36.541Z,101045.02
2019-05-17T03:53:13.185Z,101047.64
2019-05-17T03:55:45.622Z,101049.50
2019-05-17T03:58:19.222Z,101045.41
2019-05-17T04:00:53.531Z,101041.75
2019-05-17T04:03:31.346Z,101046.83
2019-05-17T04:06:04.230Z,101044.88
2019-05-17T04:08:47.109Z,101048.62
2019-05-17T04:11:36.385Z,101053.86
2019-05-17T04:14:18.420Z,101044.14
2019-05-17T04:16:53.744Z,101050.25
2019-05-17T04:19:36.533Z,101039.94
2019-05-17T04:22:13.440Z,101042.05
2019-05-17T04:24:57.876Z,101039.85
2019-05-17T04:27:43.594Z,101039.05
2019-05-17T04:30:27.400Z,101036.73
2019-05-17T04:33:03.522Z,101038.13
2019-05-17T04:35:45.983Z,101041.34
2019-05-17T04:38:28.886Z,101042.02
2019-05-17T04:41:13.310Z,101047.54
2019-05-17T04:44:02.424Z,101041.11
2019-05-17T04:46:34.673Z,101049.41
2019-05-17T04:49:08.149Z,101050.83
2019-05-17T04:51:43.809Z,101050.52
2019-05-17T04:54:17.371Z,101048.91
2019-05-17T04:56:53.261Z,101042.16
2019-05-17T04:59:35.817Z,101048.65
2019-05-17T05:02:12.936Z,101051.50
2019-05-17T05:04:44.670Z,101048.44
2019-05-17T05:07:18.148Z,101051.81
2019-05-17T05:09:52.508Z,101051.84
2019-05-17T05:12:26.824Z,101047.67
2019-05-17T05:15:03.539Z,101048.25
2019-05-17T05:17:52.730Z,101045.12
2019-05-17T05:20:25.118Z,101043.10
2019-05-17T05:23:07.723Z,101041.59
2019-05-17T05:25:53.033Z,101040.75
2019-05-17T05:28:35.886Z,101041.42
2019-05-17T05:31:18.698Z,101034.70
2019-05-17T05:34:01.992Z,101039.41
2019-05-17T05:36:52.512Z,101040.75
2019-05-17T05:39:27.166Z,101042.97
2019-05-17T05:42:14.001Z,101039.33
2019-05-17T05:45:04.683Z,101029.98
2019-05-17T05:47:49.406Z,101035.92
2019-05-17T05:50:23.567Z,101037.97
2019-05-17T05:53:12.967Z,101029.80
2019-05-17T05:55:46.944Z,101033.19
2019-05-17T05:58:23.887Z,101028.91
2019-05-17T06:01:05.625Z,101024.18
2019-05-17T06:03:41.447Z,101027.17
2019-05-17T06:06:32.221Z,101035.48
2019-05-17T06:09:08.092Z,101028.45
2019-05-17T06:11:53.550Z,101024.37
2019-05-17T06:14:26.890Z,101021.73
2019-05-17T06:17:03.087Z,101025.34
2019-05-17T06:19:36.233Z,101027.83
2019-05-17T06:22:11.866Z,101024.70
2019-05-17T06:24:46.440Z,101023.45
2019-05-17T06:27:21.525Z,101014.13
2019-05-17T06:29:55.239Z,101022.67
2019-05-17T06:32:31.624Z,101023.13
2019-05-17T06:35:14.471Z,101015.58
2019-05-17T06:37:53.597Z,101019.73
2019-05-17T06:40:37.472Z,101019.39
2019-05-17T06:43:15.844Z,101019.53
2019-05-17T06:45:55.558Z,101016.94
2019-05-17T06:48:44.067Z,101013.80
2019-05-17T06:51:22.174Z,101010.66
2019-05-17T06:54:11.924Z,101006.30
2019-05-17T06:56:59.330Z,101004.00
2019-05-17T06:59:48.446Z,101009.94
2019-05-17T07:02:25.720Z,101007.14
2019-05-17T07:05:19.942Z,101006.30
2019-05-17T07:07:57.157Z,101007.95
2019-05-17T07:10:36.177Z,101010.10
2019-05-17T07:13:14.592Z,101009.41
2019-05-17T07:15:52.680Z,101008.36
2019-05-17T07:18:30.875Z,101002.76
2019-05-17T07:21:05.743Z,101002.44
2019-05-17T07:23:44.705Z,101002.38
2019-05-17T07:26:23.288Z,100996.52
2019-05-17T07:29:02.894Z,101001.30
2019-05-17T07:31:51.570Z,101002.45
2019-05-17T07:34:30.918Z,101001.13
2019-05-17T07:37:19.801Z,101004.33
2019-05-17T07:40:12.215Z,101010.23
2019-05-17T07:42:51.911Z,101008.27
2019-05-17T07:45:40.511Z,101005.63
2019-05-17T07:48:31.450Z,101000.92
2019-05-17T07:51:19.567Z,101004.09
2019-05-17T07:53:59.765Z,101003.94
2019-05-17T07:56:40.174Z,100999.07
2019-05-17T07:59:29.331Z,100997.14
2019-05-17T08:02:03.509Z,101000.36
2019-05-17T08:04:37.445Z,101004.19
2019-05-17T08:07:11.411Z,100999.59
2019-05-17T08:09:46.680Z,101002.63
2019-05-17T08:12:20.055Z,101005.48
2019-05-17T08:14:53.891Z,100996.09
2019-05-17T08:17:27.616Z,100996.59
2019-05-17T08:20:01.147Z,100996.30
2019-05-17T08:22:34.705Z,100998.36
2019-05-17T08:25:10.004Z,100985.86
2019-05-17T08:27:43.628Z,100989.11
2019-05-17T08:30:16.379Z,100984.91
2019-05-17T08:32:50.545Z,100980.14
2019-05-17T08:35:24.124Z,100972.36
2019-05-17T08:38:00.328Z,100971.30
2019-05-17T08:40:33.593Z,100977.81
2019-05-17T08:43:16.512Z,100959.27
2019-05-17T08:46:01.787Z,100957.48
2019-05-17T08:48:50.157Z,100956.98
2019-05-17T08:51:24.059Z,100970.67
2019-05-17T08:53:59.843Z,100969.17
2019-05-17T08:56:32.703Z,100963.09
2019-05-17T08:59:06.425Z,100961.98
2019-05-17T09:01:41.789Z,100963.04
2019-05-17T09:04:17.263Z,100952.06
2019-05-17T09:06:50.684Z,100962.73
2019-05-17T09:09:25.986Z,100952.63
2019-05-17T09:11:59.969Z,100951.11
2019-05-17T09:14:43.157Z,100949.06
2019-05-17T09:17:29.854Z,100951.83
2019-05-17T09:20:02.659Z,100948.78
2019-05-17T09:22:35.865Z,100948.05
2019-05-17T09:25:15.018Z,100955.25
2019-05-17T09:27:53.254Z,100951.63
2019-05-17T09:30:41.584Z,100954.89
2019-05-17T09:33:15.674Z,100956.24
2019-05-17T09:36:00.447Z,100948.11
2019-05-17T09:38:33.323Z,100948.52
2019-05-17T09:41:09.204Z,100948.52
2019-05-17T09:43:41.910Z,100945.09
2019-05-17T09:46:15.932Z,100940.77
2019-05-17T09:48:50.477Z,100938.05
2019-05-17T09:51:24.004Z,100925.02
2019-05-17T09:53:59.896Z,100932.64
2019-05-17T09:56:33.648Z,100929.18
2019-05-17T09:59:15.878Z,100926.00
2019-05-17T10:01:49.672Z,100918.97
2019-05-17T10:04:22.822Z,100914.70
2019-05-17T10:06:56.720Z,100909.34
2019-05-17T10:09:30.527Z,100903.98
2019-05-17T10:12:05.391Z,100905.92
2019-05-17T10:14:38.851Z,100904.02
2019-05-17T10:17:12.109Z,100906.45
2019-05-17T10:19:55.130Z,100892.33
2019-05-17T10:22:30.398Z,100892.89
2019-05-17T10:25:03.824Z,100889.61
2019-05-17T10:27:37.531Z,100894.52
2019-05-17T10:30:11.410Z,100897.75
2019-05-17T10:32:44.998Z,100897.73
2019-05-17T10:35:19.964Z,100895.83
2019-05-17T10:37:53.957Z,100892.05
2019-05-17T10:40:29.774Z,100891.50
2019-05-17T10:43:03.607Z,100889.62
2019-05-17T10:45:53.654Z,100890.65
2019-05-17T10:48:29.900Z,100880.84
2019-05-17T10:51:14.442Z,100878.34
2019-05-17T10:53:48.090Z,100879.70
2019-05-17T10:56:23.741Z,100876.22
2019-05-17T10:58:59.978Z,100878.72
2019-05-17T11:01:45.068Z,100879.01
2019-05-17T11:04:27.355Z,100876.58
2019-05-17T11:07:00.936Z,100873.31
2019-05-17T11:09:34.232Z,100867.87
2019-05-17T11:12:07.433Z,100867.87
2019-05-17T11:14:52.220Z,100868.70
2019-05-17T11:17:29.369Z,100864.63
2019-05-17T11:20:02.928Z,100869.50
2019-05-17T11:22:36.522Z,100868.64
2019-05-17T11:25:08.707Z,100872.70
2019-05-17T11:27:42.867Z,100869.49
2019-05-17T11:30:16.175Z,100866.22
2019-05-17T11:32:50.258Z,100857.81
2019-05-17T11:35:25.521Z,100868.14
2019-05-17T11:37:59.400Z,100866.28
2019-05-17T11:40:41.682Z,100863.56
2019-05-17T11:43:15.463Z,100867.36
2019-05-17T11:45:49.724Z,100866.00
2019-05-17T11:48:32.692Z,100866.03
2019-05-17T11:51:06.009Z,100861.64
2019-05-17T11:53:48.252Z,100862.17
2019-05-17T11:56:21.741Z,100867.88
2019-05-17T11:58:56.147Z,100864.65
2019-05-17T12:01:29.746Z,100857.58
2019-05-17T12:04:12.175Z,100852.98
2019-05-17T12:06:56.981Z,100852.14
2019-05-17T12:09:37.697Z,100861.64
2019-05-17T12:12:09.645Z,100857.28
2019-05-17T12:14:52.544Z,100851.04
2019-05-17T12:17:26.561Z,100849.67
2019-05-17T12:20:00.167Z,100854.55
2019-05-17T12:22:33.882Z,100848.83
2019-05-17T12:25:07.484Z,100848.26
2019-05-17T12:27:42.008Z,100848.26
2019-05-17T12:30:30.467Z,100852.09
2019-05-17T12:33:02.912Z,100850.22
2019-05-17T12:35:38.341Z,100848.61
2019-05-17T12:38:11.990Z,100849.98
2019-05-17T12:40:45.822Z,100841.00
2019-05-17T12:43:19.641Z,100845.62
2019-05-17T12:46:00.843Z,100842.92
2019-05-17T12:48:28.869Z,100843.47
2019-05-17T12:51:02.058Z,100846.44
2019-05-17T12:53:35.619Z,100846.42
2019-05-17T12:56:09.499Z,100839.91
2019-05-17T12:58:42.328Z,100846.69
2019-05-17T13:01:15.981Z,100832.28
2019-05-17T13:03:47.736Z,100844.22
2019-05-17T13:06:30.629Z,100834.69
2019-05-17T13:09:14.913Z,100839.58
2019-05-17T13:11:48.709Z,100835.53
2019-05-17T13:14:37.624Z,100830.13
2019-05-17T13:17:20.816Z,100828.25
2019-05-17T13:20:03.305Z,100832.86
2019-05-17T13:22:46.070Z,100824.98
2019-05-17T13:25:34.838Z,100829.33
2019-05-17T13:28:18.088Z,100826.61
2019-05-17T13:30:51.001Z,100832.58
2019-05-17T13:33:29.163Z,100827.42
2019-05-17T13:36:12.957Z,100827.70
2019-05-17T13:38:46.648Z,100824.44
2019-05-17T13:41:29.048Z,100821.72
2019-05-17T13:44:02.242Z,100827.42
2019-05-17T13:46:35.913Z,100824.19
2019-05-17T13:49:09.761Z,100826.34
2019-05-17T13:51:51.873Z,100821.98
2019-05-17T13:54:25.928Z,100829.02
2019-05-17T13:57:00.053Z,100829.02
2019-05-17T13:59:38.420Z,100820.37
2019-05-17T14:02:13.167Z,100819.30
2019-05-17T14:04:47.673Z,100819.82
2019-05-17T14:07:20.379Z,100819.03
2019-05-17T14:09:55.450Z,100816.03
2019-05-17T14:12:32.741Z,100823.63
2019-05-17T14:15:07.599Z,100822.27
2019-05-17T14:17:41.203Z,100820.36
2019-05-17T14:20:15.913Z,100820.63
2019-05-17T14:23:02.878Z,100816.03
2019-05-17T14:25:35.342Z,100819.83
2019-05-17T14:28:17.836Z,100821.99
2019-05-17T14:30:53.695Z,100819.83
2019-05-17T14:33:26.925Z,100816.30
2019-05-17T14:36:12.006Z,100823.59
2019-05-17T14:38:45.322Z,100821.96
2019-05-17T14:41:19.882Z,100821.13
2019-05-17T14:43:53.561Z,100815.36
2019-05-17T14:46:27.122Z,100820.52
2019-05-17T14:49:01.272Z,100819.42
2019-05-17T14:51:35.260Z,100815.05
2019-05-17T14:54:20.290Z,100819.42
2019-05-17T14:57:08.840Z,100816.73
2019-05-17T14:59:42.728Z,100820.03
2019-05-17T15:02:16.138Z,100814.11
2019-05-17T15:05:01.627Z,100804.09
2019-05-17T15:07:37.109Z,100810.88
2019-05-17T15:10:18.985Z,100804.62
2019-05-17T15:12:52.934Z,100803.54
2019-05-17T15:15:27.042Z,100798.94
2019-05-17T15:18:00.439Z,100809.52
2019-05-17T15:20:44.592Z,100795.38
2019-05-17T15:23:27.523Z,100804.36
2019-05-17T15:26:15.951Z,100802.73
2019-05-17T15:28:49.439Z,100794.03
2019-05-17T15:31:23.149Z,100800.29
2019-05-17T15:34:06.005Z,100797.58
2019-05-17T15:36:39.204Z,100797.83
2019-05-17T15:39:13.485Z,100792.14
2019-05-17T15:41:45.659Z,100786.16
2019-05-17T15:44:31.073Z,100777.75
2019-05-17T15:47:03.858Z,100775.03
2019-05-17T15:49:37.963Z,100773.15
2019-05-17T15:52:12.396Z,100762.29
2019-05-17T15:54:48.552Z,100772.05
2019-05-17T15:57:21.500Z,100768.53
2019-05-17T15:59:55.111Z,100766.89
2019-05-17T16:02:28.425Z,100768.80
2019-05-17T16:05:19.051Z,100767.69
2019-05-17T16:08:04.213Z,100761.19
2019-05-17T16:10:49.040Z,100751.95
2019-05-17T16:13:22.764Z,100760.91
2019-05-17T16:15:58.156Z,100756.55
2019-05-17T16:18:31.442Z,100741.11
2019-05-17T16:21:04.712Z,100751.69
2019-05-17T16:23:37.347Z,100751.44
2019-05-17T16:26:10.546Z,100751.44
2019-05-17T16:28:44.218Z,100747.09
2019-05-17T16:31:18.147Z,100751.40
2019-05-17T16:33:51.747Z,100749.52
2019-05-17T16:36:25.266Z,100745.43
2019-05-17T16:38:58.548Z,100744.55
2019-05-17T16:41:32.579Z,100742.53
2019-05-17T16:44:05.498Z,100745.42
2019-05-17T16:46:39.911Z,100744.70
2019-05-17T16:49:22.828Z,100741.47
2019-05-17T16:51:58.098Z,100738.61
2019-05-17T16:54:40.395Z,100738.98
2019-05-17T16:57:13.980Z,100732.02
2019-05-17T16:59:47.582Z,100733.70
2019-05-17T17:02:21.682Z,100733.44
2019-05-17T17:05:03.645Z,100736.45
2019-05-17T17:07:41.841Z,100732.63
2019-05-17T17:10:24.334Z,100730.41
2019-05-17T17:12:59.257Z,100728.99
2019-05-17T17:15:32.806Z,100724.86
2019-05-17T17:18:07.418Z,100722.41
2019-05-17T17:20:40.164Z,100722.50
2019-05-17T17:23:12.972Z,100723.61
2019-05-17T17:25:59.331Z,100724.20
2019-05-17T17:28:33.549Z,100726.43
2019-05-17T17:31:10.831Z,100735.95
2019-05-17T17:33:44.836Z,100736.23
2019-05-17T17:36:19.567Z,100731.61
2019-05-17T17:38:51.524Z,100721.23
2019-05-17T17:41:26.645Z,100721.23
2019-05-17T17:44:02.146Z,100717.97
2019-05-17T17:46:36.072Z,100717.97
2019-05-17T17:49:11.328Z,100720.38
2019-05-17T17:51:54.104Z,100721.74
2019-05-17T17:54:39.502Z,100720.11
2019-05-17T17:57:33.292Z,100713.59
2019-05-17T18:00:08.177Z,100722.22
2019-05-17T18:02:43.697Z,100723.53
2019-05-17T18:05:17.973Z,100716.15
2019-05-17T18:07:50.148Z,100721.80
2019-05-17T18:10:34.201Z,100724.23
2019-05-17T18:13:08.789Z,100721.72
2019-05-17T18:15:45.323Z,100727.66
2019-05-17T18:18:19.008Z,100727.66
2019-05-17T18:20:52.281Z,100729.81
2019-05-17T18:23:51.040Z,100728.39
2019-05-17T18:26:24.736Z,100732.14
2019-05-17T18:28:58.523Z,100727.72
2019-05-17T18:31:31.167Z,100722.88
2019-05-17T18:34:05.810Z,100727.19
2019-05-17T18:36:38.670Z,100727.40
2019-05-17T18:39:31.720Z,100724.41
2019-05-17T18:42:16.579Z,100725.97
2019-05-17T18:45:01.759Z,100733.53
2019-05-17T18:47:50.503Z,100726.19
2019-05-17T18:50:31.008Z,100732.84
2019-05-17T18:53:20.644Z,100737.72
2019-05-17T18:55:55.625Z,100733.05
2019-05-17T18:58:40.377Z,100737.14
2019-05-17T19:01:25.163Z,100736.34
2019-05-17T19:03:59.102Z,100739.55
2019-05-17T19:06:35.209Z,100738.73
2019-05-17T19:09:09.236Z,100741.34
2019-05-17T19:11:42.865Z,100740.90
2019-05-17T19:14:17.240Z,100739.63
2019-05-17T19:17:02.775Z,100742.88
2019-05-17T19:19:37.434Z,100745.80
2019-05-17T19:22:11.092Z,100749.03
2019-05-17T19:24:56.648Z,100747.42
2019-05-17T19:27:30.624Z,100753.33
2019-05-17T19:30:18.343Z,100749.03
2019-05-17T19:32:53.746Z,100750.08
2019-05-17T19:35:38.963Z,100744.63
2019-05-17T19:38:10.840Z,100752.05
2019-05-17T19:41:03.129Z,100749.25
2019-05-17T19:43:41.576Z,100748.39
2019-05-17T19:46:15.909Z,100752.98
2019-05-17T19:49:02.646Z,100755.84
2019-05-17T19:51:38.390Z,100761.58
2019-05-17T19:54:14.950Z,100767.46
2019-05-17T19:57:07.586Z,100764.34
2019-05-17T19:59:47.311Z,100770.16
2019-05-17T20:02:28.625Z,100769.33
2019-05-17T20:05:13.513Z,100765.53
2019-05-17T20:07:51.150Z,100769.19
2019-05-17T20:10:33.165Z,100770.88
2019-05-17T20:13:16.904Z,100767.33
2019-05-17T20:15:51.782Z,100762.44
2019-05-17T20:18:26.046Z,100762.13
2019-05-17T20:21:00.966Z,100760.48
2019-05-17T20:23:43.667Z,100755.87
2019-05-17T20:26:28.663Z,100748.33
2019-05-17T20:29:14.675Z,100750.13
2019-05-17T20:32:15.312Z,100744.86
2019-05-17T20:34:56.601Z,100746.59
2019-05-17T20:37:52.209Z,100741.77
2019-05-17T20:40:25.544Z,100741.34
2019-05-17T20:43:03.942Z,100743.78
2019-05-17T20:45:39.378Z,100738.67
2019-05-17T20:51:15.762Z,100735.59
2019-05-17T20:54:06.466Z,100727.91
2019-05-17T20:56:44.710Z,100732.41
2019-05-17T20:59:21.825Z,100731.16
2019-05-17T21:02:08.669Z,100726.85
2019-05-17T21:04:45.435Z,100722.92
2019-05-17T21:07:23.984Z,100724.97
2019-05-17T21:09:57.391Z,100722.45
2019-05-17T21:12:34.225Z,100724.38
2019-05-17T21:15:13.917Z,100723.03
2019-05-17T21:17:51.362Z,100722.45
2019-05-17T21:20:24.744Z,100729.16
2019-05-17T21:22:59.262Z,100722.86
2019-05-17T21:25:54.317Z,100720.27
2019-05-17T21:28:30.463Z,100721.13
2019-05-17T21:31:07.797Z,100726.13
2019-05-17T21:33:43.174Z,100722.23
2019-05-17T21:36:16.352Z,100720.77
2019-05-17T21:38:49.633Z,100724.15
2019-05-17T21:41:24.140Z,100718.42
2019-05-17T21:43:57.461Z,100716.36
2019-05-17T21:46:31.370Z,100727.45
2019-05-17T21:49:04.742Z,100721.31
2019-05-17T21:51:38.925Z,100714.56
2019-05-17T21:54:30.854Z,100712.61
2019-05-17T21:57:16.949Z,100713.28
2019-05-17T22:00:08.688Z,100719.20
2019-05-17T22:02:43.989Z,100723.17
2019-05-17T22:05:36.381Z,100716.27
2019-05-17T22:08:27.414Z,100709.68
2019-05-17T22:11:15.739Z,100711.95
2019-05-17T22:14:01.911Z,100710.53
2019-05-17T22:16:36.560Z,100709.33
2019-05-17T22:19:11.839Z,100707.17
2019-05-17T22:21:47.899Z,100708.69
2019-05-17T22:24:38.676Z,100701.22
2019-05-17T22:27:12.972Z,100702.83
2019-05-17T22:29:56.573Z,100707.59
2019-05-17T22:32:32.208Z,100698.34
2019-05-17T22:35:07.054Z,100706.47
2019-05-17T22:37:41.086Z,100712.28
2019-05-17T22:40:25.847Z,100711.87
2019-05-17T22:42:59.975Z,100715.19
2019-05-17T22:45:33.929Z,100707.01
2019-05-17T22:48:24.348Z,100708.80
2019-05-17T22:50:58.106Z,100705.91
2019-05-17T22:53:50.063Z,100705.05
2019-05-17T22:56:38.615Z,100706.35
2019-05-17T22:59:30.997Z,100703.88
2019-05-17T23:02:04.402Z,100705.61
2019-05-17T23:04:39.637Z,100705.61
2019-05-17T23:07:13.382Z,100699.93
2019-05-17T23:09:46.867Z,100703.30
2019-05-17T23:12:21.249Z,100698.97
2019-05-17T23:14:59.450Z,100696.52
2019-05-17T23:17:39.567Z,100687.91
2019-05-17T23:20:13.384Z,100691.95
2019-05-17T23:22:58.346Z,100682.62
2019-05-17T23:25:32.646Z,100682.23
2019-05-17T23:28:18.067Z,100679.59
2019-05-17T23:30:51.720Z,100678.68
2019-05-17T23:33:25.644Z,100681.17
2019-05-17T23:35:59.308Z,100684.46
2019-05-17T23:38:33.387Z,100688.02
2019-05-17T23:41:06.651Z,100680.48
2019-05-17T23:43:40.357Z,100680.77
2019-05-17T23:46:14.821Z,100685.02
2019-05-17T23:48:48.930Z,100681.23
2019-05-17T23:51:23.121Z,100684.92
2019-05-17T23:54:05.870Z,100678.58
2019-05-17T23:56:40.669Z,100678.06
2019-05-17T23:59:14.645Z,100677.27
